Time;durP1;ratioP1;P1;durP2;ratioP2;P2;SDS_P1;SDS_P2;PMS_P1;PMS_P2;Temp;Humidity;BMP_temperature;BMP_pressure;BME280_temperature;BME280_humidity;BME280_pressure;Samples;Min_cycle;Max_cycle;Signal;HPM_P1;HPM_P2
2021/12/02 00:00:44;;;;;;;1.80;0.30;;;3.70;99.90;;;;;;5116504;28;20194;-92
2021/12/02 00:03:09;;;;;;;3.90;0.70;;;3.70;99.90;;;;;;5114966;28;20210;-89
2021/12/02 00:05:38;;;;;;;6.70;0.60;;;3.70;99.90;;;;;;5115708;28;20541;-92
2021/12/02 00:08:04;;;;;;;1.07;0.40;;;3.60;99.90;;;;;;5114439;28;20224;-88
2021/12/02 00:10:31;;;;;;;1.50;0.33;;;3.60;99.90;;;;;;5114768;28;20784;-91
2021/12/02 00:13:01;;;;;;;5.50;0.40;;;3.50;99.90;;;;;;5114823;28;20420;-90
2021/12/02 00:15:36;;;;;;;3.93;0.57;;;3.50;99.90;;;;;;5114649;28;20419;-89
2021/12/02 00:24:07;;;;;;;4.57;0.77;;;3.50;99.90;;;;;;5053032;28;20443;-87
2021/12/02 00:26:37;;;;;;;3.00;0.63;;;3.60;99.90;;;;;;5052668;28;20428;-89
2021/12/02 00:29:05;;;;;;;2.83;0.70;;;3.50;99.90;;;;;;5091465;28;20418;-91
2021/12/02 00:31:34;;;;;;;4.37;1.10;;;3.50;99.90;;;;;;5131480;27;20488;-90
2021/12/02 00:34:03;;;;;;;2.20;0.50;;;3.50;99.90;;;;;;5114515;28;20415;-90
2021/12/02 00:36:31;;;;;;;2.13;0.40;;;3.50;99.90;;;;;;5131610;27;20409;-86
2021/12/02 00:38:57;;;;;;;3.13;0.60;;;3.50;99.90;;;;;;5115556;28;20514;-90
2021/12/02 00:41:26;;;;;;;2.77;0.80;;;3.50;99.90;;;;;;5115220;28;20477;-90
2021/12/02 00:43:55;;;;;;;1.90;1.23;;;3.50;99.90;;;;;;5115855;28;20472;-93
2021/12/02 00:46:23;;;;;;;2.20;0.73;;;3.50;99.90;;;;;;5114442;28;20423;-91
2021/12/02 00:48:49;;;;;;;6.10;0.63;;;3.50;99.90;;;;;;5114549;28;20456;-91
2021/12/02 00:51:18;;;;;;;7.10;1.30;;;3.50;99.90;;;;;;5114439;28;20953;-91
2021/12/02 00:53:51;;;;;;;1.80;0.60;;;3.40;99.90;;;;;;5115851;27;20463;-90
2021/12/02 00:56:23;;;;;;;2.93;0.33;;;3.40;99.90;;;;;;5114795;28;20852;-92
2021/12/02 00:58:49;;;;;;;12.30;0.97;;;3.40;99.90;;;;;;5115613;28;20916;-90
2021/12/02 01:01:16;;;;;;;1.43;0.50;;;3.50;99.90;;;;;;5115088;28;20452;-88
2021/12/02 01:03:42;;;;;;;7.63;0.90;;;3.40;99.90;;;;;;5114450;28;20933;-88
2021/12/02 01:06:08;;;;;;;6.73;1.20;;;3.40;99.90;;;;;;5111466;28;20463;-90
2021/12/02 01:08:36;;;;;;;3.20;0.77;;;3.50;99.90;;;;;;5095123;28;20505;-90
2021/12/02 01:11:03;;;;;;;2.37;0.77;;;3.40;99.90;;;;;;5093538;28;20192;-87
2021/12/02 01:13:28;;;;;;;3.43;0.47;;;3.40;99.90;;;;;;5093055;28;20431;-90
2021/12/02 01:15:54;;;;;;;6.20;1.20;;;3.50;99.90;;;;;;5091914;28;20408;-86
2021/12/02 01:18:20;;;;;;;1.90;0.83;;;3.40;99.90;;;;;;5092676;28;20199;-88
2021/12/02 01:20:49;;;;;;;6.13;1.23;;;3.40;99.90;;;;;;5094129;28;20168;-90
2021/12/02 01:23:17;;;;;;;0.87;0.30;;;3.40;99.90;;;;;;5093125;28;20474;-89
2021/12/02 01:26:00;;;;;;;5.40;0.63;;;3.40;99.90;;;;;;5092652;28;20491;-88
2021/12/02 01:28:26;;;;;;;1.83;0.83;;;3.40;99.90;;;;;;5092874;28;20421;-87
2021/12/02 01:30:54;;;;;;;7.37;1.23;;;3.40;99.90;;;;;;5092714;28;20880;-88
2021/12/02 01:33:21;;;;;;;5.23;0.57;;;3.30;99.90;;;;;;5093723;28;20177;-88
2021/12/02 01:35:51;;;;;;;4.73;0.67;;;3.30;99.90;;;;;;5082873;28;20428;-89
2021/12/02 01:38:17;;;;;;;4.43;0.57;;;3.30;99.90;;;;;;5073450;28;20483;-87
2021/12/02 01:40:44;;;;;;;2.70;0.33;;;3.30;99.90;;;;;;5073842;28;20419;-89
2021/12/02 01:43:15;;;;;;;1.43;0.20;;;3.30;99.90;;;;;;5073816;28;20464;-88
2021/12/02 01:45:41;;;;;;;3.83;1.20;;;3.30;99.90;;;;;;5073634;28;20929;-87
2021/12/02 01:48:10;;;;;;;2.13;0.50;;;3.20;99.90;;;;;;5072419;28;20431;-87
2021/12/02 01:50:39;;;;;;;0.97;0.53;;;3.20;99.90;;;;;;5072470;28;20410;-88
2021/12/02 01:53:06;;;;;;;4.80;0.87;;;3.20;99.90;;;;;;5073600;28;20408;-86
2021/12/02 01:55:35;;;;;;;4.77;1.03;;;3.10;99.90;;;;;;5072561;28;20411;-87
2021/12/02 01:58:04;;;;;;;3.10;0.80;;;3.10;99.90;;;;;;5073887;28;21022;-87
2021/12/02 02:00:33;;;;;;;4.10;0.50;;;3.10;99.90;;;;;;5071771;28;20415;-86
2021/12/02 02:03:01;;;;;;;1.70;0.80;;;3.10;99.90;;;;;;5073430;28;20475;-86
2021/12/02 02:05:27;;;;;;;2.30;0.70;;;3.10;99.90;;;;;;5072448;28;21060;-88
2021/12/02 02:08:16;;;;;;;2.37;0.60;;;3.10;99.90;;;;;;5073503;28;20417;-86
2021/12/02 02:10:43;;;;;;;5.33;0.97;;;3.00;99.90;;;;;;5073731;28;20460;-89
2021/12/02 02:13:10;;;;;;;2.13;0.73;;;3.00;99.90;;;;;;5073810;28;20396;-88
2021/12/02 02:15:37;;;;;;;0.40;0.33;;;3.00;99.90;;;;;;5077919;28;20419;-87
2021/12/02 02:18:12;;;;;;;2.50;0.80;;;3.00;99.90;;;;;;5093067;28;20497;-88
2021/12/02 02:23:22;;;;;;;0.90;0.27;;;2.90;99.90;;;;;;5094091;28;20434;-90
2021/12/02 02:25:48;;;;;;;1.13;0.30;;;2.90;99.90;;;;;;5093026;28;20914;-89
2021/12/02 02:28:15;;;;;;;5.00;1.03;;;2.80;99.90;;;;;;5094940;28;20422;-89
2021/12/02 02:30:41;;;;;;;5.73;0.90;;;2.80;99.90;;;;;;5098773;28;20445;-87
2021/12/02 02:33:07;;;;;;;1.73;0.53;;;2.80;99.90;;;;;;5104513;28;20966;-87
2021/12/02 02:35:33;;;;;;;4.67;1.50;;;2.70;99.90;;;;;;5097973;28;20427;-86
2021/12/02 02:38:00;;;;;;;4.37;0.40;;;2.80;99.90;;;;;;5096761;28;20447;-86
2021/12/02 02:40:26;;;;;;;1.27;0.23;;;2.70;99.90;;;;;;5098809;28;20177;-87
2021/12/02 02:42:57;;;;;;;0.40;0.23;;;2.80;99.90;;;;;;5097434;28;20458;-88
2021/12/02 02:45:23;;;;;;;0.60;0.23;;;2.80;99.90;;;;;;5096723;28;20481;-89
2021/12/02 02:47:49;;;;;;;1.50;1.20;;;2.80;99.90;;;;;;5096963;28;20751;-88
2021/12/02 02:50:15;;;;;;;2.70;0.90;;;2.80;99.90;;;;;;5096928;28;20942;-87
2021/12/02 02:52:41;;;;;;;2.97;0.50;;;2.70;99.90;;;;;;5095292;28;20199;-86
2021/12/02 02:55:08;;;;;;;1.33;0.47;;;2.70;99.90;;;;;;5095565;28;20458;-89
2021/12/02 02:57:47;;;;;;;2.80;0.30;;;2.70;99.90;;;;;;5095364;28;20433;-87
2021/12/02 03:00:18;;;;;;;1.13;0.20;;;2.70;99.90;;;;;;5096412;28;20449;-88
2021/12/02 03:05:29;;;;;;;1.43;0.30;;;2.70;99.90;;;;;;5096615;28;20410;-86
2021/12/02 03:07:58;;;;;;;4.03;0.37;;;2.70;99.90;;;;;;5096963;28;20416;-87
2021/12/02 03:13:23;;;;;;;0.50;0.40;;;2.70;99.90;;;;;;5096929;28;20433;-88
2021/12/02 03:18:36;;;;;;;1.67;0.70;;;2.70;99.90;;;;;;5096865;28;20480;-89
2021/12/02 03:21:02;;;;;;;2.33;0.57;;;2.70;99.90;;;;;;5096058;28;20883;-85
2021/12/02 03:23:28;;;;;;;1.73;0.57;;;2.60;99.90;;;;;;5096297;28;20177;-86
2021/12/02 03:25:53;;;;;;;3.30;0.50;;;2.50;99.90;;;;;;5096091;28;20161;-86
2021/12/02 03:28:19;;;;;;;1.07;0.27;;;2.50;99.90;;;;;;5094783;28;20414;-86
2021/12/02 03:30:45;;;;;;;2.03;0.67;;;2.40;99.90;;;;;;5095808;28;20172;-86
2021/12/02 03:33:10;;;;;;;7.83;0.73;;;2.40;99.90;;;;;;5096111;28;20176;-88
2021/12/02 03:35:36;;;;;;;2.83;0.60;;;2.40;99.90;;;;;;5096101;28;20164;-87
2021/12/02 03:38:02;;;;;;;0.97;0.63;;;2.30;99.90;;;;;;5095330;28;20240;-85
2021/12/02 03:40:28;;;;;;;3.50;0.80;;;2.30;99.90;;;;;;5094472;28;20229;-88
2021/12/02 03:42:54;;;;;;;3.33;0.50;;;2.30;99.90;;;;;;5095163;28;20203;-87
2021/12/02 03:45:24;;;;;;;3.30;0.83;;;2.30;99.90;;;;;;5095225;28;20239;-88
2021/12/02 03:47:51;;;;;;;2.50;0.70;;;2.30;99.90;;;;;;5094957;28;20419;-86
2021/12/02 03:50:16;;;;;;;1.67;0.50;;;2.30;99.90;;;;;;5094847;28;20803;-85
2021/12/02 03:52:42;;;;;;;5.63;0.53;;;2.30;99.90;;;;;;5093565;28;20422;-85
2021/12/02 03:55:08;;;;;;;0.83;0.50;;;2.20;99.90;;;;;;5094933;28;20160;-86
2021/12/02 03:57:34;;;;;;;2.20;0.40;;;2.20;99.90;;;;;;5094707;28;20541;-86
2021/12/02 04:00:04;;;;;;;1.40;0.57;;;2.30;99.90;;;;;;5094398;28;20433;-85
2021/12/02 04:02:30;;;;;;;5.27;1.17;;;2.30;99.90;;;;;;5094843;28;20538;-86
2021/12/02 04:04:55;;;;;;;1.17;0.40;;;2.40;99.90;;;;;;5094825;28;20417;-86
2021/12/02 04:07:25;;;;;;;4.30;0.63;;;2.40;99.90;;;;;;5093549;28;20175;-87
2021/12/02 04:09:51;;;;;;;0.70;0.40;;;2.30;99.90;;;;;;5093481;28;20169;-87
2021/12/02 04:13:00;;;;;;;3.37;0.70;;;2.30;99.90;;;;;;5091799;28;20437;-84
2021/12/02 04:15:16;;;;;;;1.57;0.33;;;2.30;99.90;;;;;;5087870;28;20929;-85
2021/12/02 04:17:42;;;;;;;1.47;0.60;;;2.30;99.90;;;;;;5093472;28;20571;-87
2021/12/02 04:20:15;;;;;;;2.23;0.30;;;2.30;99.90;;;;;;5093092;28;20436;-86
2021/12/02 04:22:41;;;;;;;1.80;0.57;;;2.30;99.90;;;;;;5092387;28;20470;-85
2021/12/02 04:25:08;;;;;;;1.27;0.53;;;2.20;99.90;;;;;;5090855;28;20426;-84
2021/12/02 04:27:34;;;;;;;1.40;0.50;;;2.10;99.90;;;;;;5091096;28;20446;-85
2021/12/02 04:30:00;;;;;;;1.50;0.50;;;2.00;99.90;;;;;;5091916;28;20418;-86
2021/12/02 04:32:25;;;;;;;1.17;0.80;;;1.90;99.90;;;;;;5092723;28;20433;-85
2021/12/02 04:34:51;;;;;;;1.30;0.87;;;1.90;99.90;;;;;;5092872;28;20461;-86
2021/12/02 04:37:17;;;;;;;5.50;0.67;;;1.90;99.90;;;;;;5092462;28;20177;-85
2021/12/02 04:39:42;;;;;;;0.97;0.40;;;1.80;99.90;;;;;;5092448;28;20547;-87
2021/12/02 04:42:08;;;;;;;4.30;0.70;;;1.80;99.90;;;;;;5092475;28;20215;-85
2021/12/02 04:44:34;;;;;;;4.00;0.60;;;1.80;99.90;;;;;;5092268;28;20172;-85
2021/12/02 04:46:59;;;;;;;1.40;0.57;;;1.70;99.90;;;;;;5091003;28;20168;-84
2021/12/02 04:49:25;;;;;;;7.50;1.13;;;1.70;99.90;;;;;;5092670;28;20233;-88
2021/12/02 04:51:50;;;;;;;2.70;0.50;;;1.70;99.90;;;;;;5091384;28;20616;-88
2021/12/02 04:54:16;;;;;;;3.03;0.43;;;1.70;99.90;;;;;;5092660;28;20514;-89
2021/12/02 04:56:42;;;;;;;3.80;0.73;;;1.60;99.90;;;;;;5091485;28;20180;-87
2021/12/02 04:59:07;;;;;;;3.10;0.40;;;1.60;99.90;;;;;;5092678;28;20176;-86
2021/12/02 05:01:33;;;;;;;2.47;0.60;;;1.60;99.90;;;;;;5091922;28;20204;-89
2021/12/02 05:03:58;;;;;;;0.30;0.30;;;1.60;99.90;;;;;;5093434;28;20320;-89
2021/12/02 05:06:24;;;;;;;1.60;0.50;;;1.60;99.90;;;;;;5093104;28;20198;-87
2021/12/02 05:08:50;;;;;;;3.13;0.83;;;1.60;99.90;;;;;;5093241;28;20272;-86
2021/12/02 05:11:15;;;;;;;4.03;0.43;;;1.40;99.90;;;;;;5092071;28;20232;-87
2021/12/02 05:13:41;;;;;;;0.73;0.50;;;1.40;99.90;;;;;;5091061;28;20179;-86
2021/12/02 05:16:06;;;;;;;0.80;0.50;;;1.50;99.90;;;;;;5092374;28;20221;-87
2021/12/02 05:18:32;;;;;;;0.50;0.30;;;1.50;99.90;;;;;;5092357;28;20176;-84
2021/12/02 05:20:59;;;;;;;4.90;0.70;;;1.40;99.90;;;;;;5092184;28;20255;-86
2021/12/02 05:23:25;;;;;;;0.83;0.83;;;1.40;99.90;;;;;;5092307;28;20203;-87
2021/12/02 05:25:51;;;;;;;2.23;0.50;;;1.30;99.90;;;;;;5093127;28;20508;-88
2021/12/02 05:28:18;;;;;;;2.10;0.50;;;1.40;99.90;;;;;;5093593;28;20233;-86
2021/12/02 05:30:47;;;;;;;0.83;0.60;;;1.30;99.90;;;;;;5093299;28;20214;-87
2021/12/02 05:33:13;;;;;;;1.20;0.50;;;1.20;99.90;;;;;;5093369;28;20418;-85
2021/12/02 05:35:39;;;;;;;1.80;0.90;;;1.20;99.90;;;;;;5093639;28;20434;-86
2021/12/02 05:38:05;;;;;;;1.80;0.73;;;1.30;99.90;;;;;;5093006;28;20472;-87
2021/12/02 05:40:31;;;;;;;0.50;0.30;;;1.30;99.90;;;;;;5093229;28;20463;-87
2021/12/02 05:42:56;;;;;;;2.57;0.87;;;1.30;99.90;;;;;;5093288;28;20219;-86
2021/12/02 05:45:22;;;;;;;10.33;1.57;;;1.40;99.90;;;;;;5091714;28;20423;-85
2021/12/02 05:47:48;;;;;;;4.20;1.17;;;1.40;99.90;;;;;;5093592;28;20180;-87
2021/12/02 05:50:14;;;;;;;4.80;0.60;;;1.40;99.90;;;;;;5094032;28;20418;-89
2021/12/02 05:52:39;;;;;;;3.43;1.10;;;1.30;99.90;;;;;;5093883;28;20184;-90
2021/12/02 05:55:05;;;;;;;1.17;0.87;;;1.30;99.90;;;;;;5093937;28;20593;-87
2021/12/02 05:57:32;;;;;;;3.70;0.77;;;1.30;99.90;;;;;;5093894;28;20632;-87
2021/12/02 05:59:58;;;;;;;1.80;0.40;;;1.30;99.90;;;;;;5093573;28;20168;-89
2021/12/02 06:02:24;;;;;;;3.80;0.60;;;1.30;99.90;;;;;;5094131;28;20480;-88
2021/12/02 06:04:53;;;;;;;2.00;0.60;;;1.40;99.90;;;;;;5097532;28;20410;-87
2021/12/02 06:07:20;;;;;;;1.50;0.40;;;1.40;99.90;;;;;;5096400;28;20186;-88
2021/12/02 06:09:46;;;;;;;7.47;1.07;;;1.40;99.90;;;;;;5097229;28;20489;-85
2021/12/02 06:12:12;;;;;;;0.97;0.50;;;1.40;99.90;;;;;;5097018;28;20422;-87
2021/12/02 06:14:38;;;;;;;3.00;0.60;;;1.30;99.90;;;;;;5095693;28;20925;-87
2021/12/02 06:17:04;;;;;;;2.20;0.60;;;1.40;99.90;;;;;;5096957;28;20420;-87
2021/12/02 06:19:30;;;;;;;1.60;0.87;;;1.40;99.90;;;;;;5097108;28;20650;-88
2021/12/02 06:21:56;;;;;;;4.73;0.73;;;1.40;99.90;;;;;;5096525;28;20453;-85
2021/12/02 06:24:29;;;;;;;1.70;0.83;;;1.30;99.90;;;;;;5095438;28;20247;-87
2021/12/02 06:26:56;;;;;;;6.50;1.07;;;1.40;99.90;;;;;;5096708;28;20414;-87
2021/12/02 06:29:22;;;;;;;2.33;1.00;;;1.40;99.90;;;;;;5096349;28;20414;-87
2021/12/02 06:31:47;;;;;;;2.63;0.63;;;1.40;99.90;;;;;;5096575;28;20832;-86
2021/12/02 06:34:13;;;;;;;4.73;1.33;;;1.40;99.90;;;;;;5095193;28;20168;-87
2021/12/02 06:36:39;;;;;;;1.30;0.30;;;1.40;99.90;;;;;;5095189;28;20527;-87
2021/12/02 06:39:05;;;;;;;4.93;0.80;;;1.40;99.90;;;;;;5095220;28;20284;-92
2021/12/02 06:41:32;;;;;;;1.13;0.20;;;1.40;99.90;;;;;;5096688;28;20200;-88
2021/12/02 06:43:58;;;;;;;2.10;0.50;;;1.40;99.90;;;;;;5096110;28;20496;-88
2021/12/02 06:46:23;;;;;;;3.00;0.83;;;1.30;99.90;;;;;;5095173;28;20594;-88
2021/12/02 06:48:49;;;;;;;5.80;1.00;;;1.20;99.90;;;;;;5094878;28;20168;-88
2021/12/02 06:51:17;;;;;;;5.93;1.23;;;1.20;99.90;;;;;;5096168;28;20819;-87
2021/12/02 06:53:43;;;;;;;6.27;0.93;;;1.20;99.90;;;;;;5095043;28;20177;-88
2021/12/02 06:56:09;;;;;;;2.40;0.60;;;1.20;99.90;;;;;;5094890;28;20431;-88
2021/12/02 06:58:34;;;;;;;2.93;1.00;;;1.20;99.90;;;;;;5094630;28;20172;-88
2021/12/02 07:01:00;;;;;;;3.40;1.50;;;1.20;99.90;;;;;;5095997;28;20517;-88
2021/12/02 07:03:26;;;;;;;2.77;0.83;;;1.10;99.90;;;;;;5094606;28;20247;-88
2021/12/02 07:05:51;;;;;;;2.30;1.00;;;1.20;99.90;;;;;;5095250;28;20176;-89
2021/12/02 07:08:17;;;;;;;2.60;0.63;;;1.20;99.90;;;;;;5096284;28;20175;-89
2021/12/02 07:10:43;;;;;;;2.33;0.50;;;1.10;99.90;;;;;;5095979;28;20168;-87
2021/12/02 07:13:09;;;;;;;4.13;0.50;;;1.20;99.90;;;;;;5094935;28;20825;-87
2021/12/02 07:15:42;;;;;;;3.50;1.20;;;1.20;99.90;;;;;;5094354;28;20417;-87
2021/12/02 07:18:14;;;;;;;2.90;0.70;;;1.20;99.90;;;;;;5095510;28;20168;-85
2021/12/02 07:20:42;;;;;;;2.93;0.80;;;1.10;99.90;;;;;;5095675;28;20399;-85
2021/12/02 07:23:08;;;;;;;7.17;2.27;;;1.10;99.90;;;;;;5095347;28;20548;-87
2021/12/02 07:25:34;;;;;;;4.47;0.80;;;1.10;99.90;;;;;;5095524;28;20410;-85
2021/12/02 07:28:01;;;;;;;3.17;0.50;;;1.10;99.90;;;;;;5095371;28;20413;-83
2021/12/02 07:30:27;;;;;;;2.90;0.67;;;1.10;99.90;;;;;;5094368;28;20239;-85
2021/12/02 07:32:55;;;;;;;3.70;0.50;;;1.20;99.90;;;;;;5095140;28;20472;-84
2021/12/02 07:35:25;;;;;;;2.73;0.63;;;1.10;99.90;;;;;;5095204;28;20260;-84
2021/12/02 07:37:59;;;;;;;3.47;0.90;;;1.20;99.90;;;;;;5094842;28;20603;-84
2021/12/02 07:40:27;;;;;;;5.87;1.47;;;1.20;99.90;;;;;;5094686;28;20424;-87
2021/12/02 07:42:53;;;;;;;4.40;0.97;;;1.20;99.90;;;;;;5094624;28;20474;-84
2021/12/02 07:45:21;;;;;;;2.83;1.23;;;1.20;99.90;;;;;;5094288;28;20418;-84
2021/12/02 07:47:48;;;;;;;3.97;2.10;;;1.20;99.90;;;;;;5094408;28;20422;-85
2021/12/02 07:50:15;;;;;;;3.37;1.33;;;1.20;99.90;;;;;;5093620;28;20419;-86
2021/12/02 07:52:46;;;;;;;4.80;1.30;;;1.30;99.90;;;;;;5095080;28;20418;-87
2021/12/02 07:55:14;;;;;;;4.17;0.40;;;1.30;99.90;;;;;;5095457;28;20446;-88
2021/12/02 07:57:42;;;;;;;2.13;0.67;;;1.30;99.90;;;;;;5095199;28;20426;-88
2021/12/02 08:00:08;;;;;;;9.03;1.67;;;1.30;99.90;;;;;;5093624;28;20512;-86
2021/12/02 08:02:35;;;;;;;2.83;0.97;;;1.40;99.90;;;;;;5094311;28;20506;-86
2021/12/02 08:05:01;;;;;;;2.57;0.97;;;1.50;99.90;;;;;;5093169;28;20762;-87
2021/12/02 08:07:27;;;;;;;5.60;1.50;;;1.40;99.90;;;;;;5093164;28;20423;-86
2021/12/02 08:09:53;;;;;;;2.27;1.13;;;1.50;99.90;;;;;;5094764;28;21003;-89
2021/12/02 08:12:18;;;;;;;2.10;0.83;;;1.50;99.90;;;;;;5093023;28;20215;-85
2021/12/02 08:14:44;;;;;;;1.90;0.50;;;1.50;99.90;;;;;;5092352;28;20643;-87
2021/12/02 08:17:09;;;;;;;2.80;0.60;;;1.50;99.90;;;;;;5094319;28;20168;-87
2021/12/02 08:19:35;;;;;;;4.70;0.80;;;1.60;99.90;;;;;;5093054;28;20207;-86
2021/12/02 08:22:01;;;;;;;5.50;0.80;;;1.70;99.90;;;;;;5092692;28;20207;-87
2021/12/02 08:24:26;;;;;;;1.70;0.60;;;1.70;99.90;;;;;;5092314;28;20198;-87
2021/12/02 08:26:53;;;;;;;2.40;0.90;;;1.70;99.90;;;;;;5093206;28;20305;-87
2021/12/02 08:29:20;;;;;;;2.10;0.67;;;1.80;99.90;;;;;;5092597;28;20643;-87
2021/12/02 08:31:46;;;;;;;4.63;0.80;;;1.90;99.90;;;;;;5092297;28;20941;-87
2021/12/02 08:34:12;;;;;;;4.53;0.40;;;2.10;99.90;;;;;;5092166;28;20426;-84
2021/12/02 08:36:42;;;;;;;3.67;1.73;;;2.40;99.90;;;;;;5092158;28;20187;-85
2021/12/02 08:39:11;;;;;;;1.73;0.60;;;2.50;99.90;;;;;;5093645;28;20543;-84
2021/12/02 08:41:43;;;;;;;1.67;0.30;;;2.80;99.90;;;;;;5092326;28;20469;-85
2021/12/02 08:44:09;;;;;;;3.90;0.73;;;3.30;99.90;;;;;;5091100;28;20519;-84
2021/12/02 08:46:35;;;;;;;1.20;0.60;;;4.00;99.90;;;;;;5092132;28;20506;-85
2021/12/02 08:49:00;;;;;;;2.73;0.90;;;3.90;99.90;;;;;;5092352;28;20424;-84
2021/12/02 08:51:26;;;;;;;2.87;0.57;;;4.10;99.90;;;;;;5092312;28;20265;-84
2021/12/02 08:53:51;;;;;;;0.83;0.23;;;4.80;99.90;;;;;;5074090;28;20182;-84
2021/12/02 08:56:17;;;;;;;7.77;0.90;;;6.10;99.90;;;;;;5072259;28;20182;-85
2021/12/02 08:58:43;;;;;;;3.73;0.63;;;5.30;99.90;;;;;;5071715;28;20176;-85
2021/12/02 09:01:08;;;;;;;1.90;0.40;;;5.20;99.90;;;;;;5073511;28;20268;-86
2021/12/02 09:03:36;;;;;;;7.33;0.70;;;5.40;99.90;;;;;;5073076;28;20621;-85
2021/12/02 09:06:02;;;;;;;2.30;0.60;;;5.80;99.90;;;;;;5073148;28;20559;-86
2021/12/02 09:08:28;;;;;;;5.77;0.37;;;6.30;99.90;;;;;;5080840;28;20426;-87
2021/12/02 09:10:56;;;;;;;2.03;0.60;;;6.30;99.90;;;;;;5092175;28;20188;-90
2021/12/02 09:13:22;;;;;;;3.63;0.67;;;5.60;99.90;;;;;;5090893;28;20251;-86
2021/12/02 09:15:48;;;;;;;2.90;0.80;;;4.80;99.90;;;;;;5091361;28;20414;-86
2021/12/02 09:18:14;;;;;;;1.83;0.50;;;5.40;99.90;;;;;;5091526;28;20421;-87
2021/12/02 09:20:41;;;;;;;4.13;0.43;;;6.20;99.90;;;;;;5091191;28;20169;-89
2021/12/02 09:23:07;;;;;;;6.00;0.87;;;6.60;99.60;;;;;;5091366;28;20251;-86
2021/12/02 09:25:32;;;;;;;4.20;1.43;;;6.60;99.80;;;;;;5092635;28;20438;-85
2021/12/02 09:27:58;;;;;;;2.50;0.70;;;6.90;99.00;;;;;;5092177;28;20559;-87
2021/12/02 09:30:25;;;;;;;4.80;0.63;;;6.30;98.30;;;;;;5090803;28;20168;-86
2021/12/02 09:32:51;;;;;;;3.90;1.00;;;5.00;99.90;;;;;;5091097;28;20267;-86
2021/12/02 09:35:16;;;;;;;5.07;0.63;;;4.20;99.90;;;;;;5091174;28;20433;-86
2021/12/02 09:37:43;;;;;;;6.53;0.90;;;4.70;99.90;;;;;;5093911;28;20281;-86
2021/12/02 09:40:11;;;;;;;1.70;0.37;;;5.10;99.90;;;;;;5097218;28;20220;-88
2021/12/02 09:42:37;;;;;;;6.40;0.80;;;5.70;99.90;;;;;;5095778;28;20799;-88
2021/12/02 09:45:04;;;;;;;2.30;0.60;;;5.70;99.90;;;;;;5096785;28;20524;-87
2021/12/02 09:47:32;;;;;;;4.00;0.70;;;6.10;99.90;;;;;;5095981;28;20427;-87
2021/12/02 09:50:02;;;;;;;3.20;0.57;;;6.30;99.90;;;;;;5089843;28;20429;-89
2021/12/02 09:52:33;;;;;;;2.70;0.97;;;6.00;99.90;;;;;;5086509;28;20514;-86
2021/12/02 09:55:09;;;;;;;5.50;0.50;;;5.40;99.90;;;;;;5095107;28;20453;-80
2021/12/02 09:57:39;;;;;;;1.40;0.37;;;5.40;99.90;;;;;;5095964;28;20742;-81
2021/12/02 10:00:07;;;;;;;1.47;0.57;;;5.30;99.90;;;;;;5095884;28;20418;-81
2021/12/02 10:02:40;;;;;;;3.83;0.60;;;5.20;99.90;;;;;;5096017;28;20481;-80
2021/12/02 10:05:09;;;;;;;2.00;0.33;;;5.10;99.90;;;;;;5096353;28;20501;-81
2021/12/02 10:07:51;;;;;;;1.80;0.37;;;4.90;99.90;;;;;;5096073;28;20444;-81
2021/12/02 10:10:28;;;;;;;1.97;0.77;;;4.80;99.90;;;;;;5095967;28;20918;-81
2021/12/02 10:13:16;;;;;;;2.20;0.73;;;4.60;99.90;;;;;;5095345;28;20409;-81
2021/12/02 10:15:51;;;;;;;2.10;0.73;;;4.30;99.90;;;;;;5095898;28;20406;-80
2021/12/02 10:18:17;;;;;;;5.00;0.70;;;4.40;99.90;;;;;;5095816;28;20401;-80
2021/12/02 10:20:49;;;;;;;3.80;0.50;;;4.30;99.90;;;;;;5095893;28;20422;-80
2021/12/02 10:23:25;;;;;;;2.60;0.93;;;4.30;99.90;;;;;;5095795;28;20505;-81
2021/12/02 10:25:56;;;;;;;1.53;0.93;;;4.30;99.90;;;;;;5095611;28;20526;-80
2021/12/02 10:28:23;;;;;;;3.13;0.60;;;4.20;99.90;;;;;;5095424;28;20420;-80
2021/12/02 10:30:57;;;;;;;4.30;0.67;;;4.30;99.90;;;;;;5094681;28;20405;-80
2021/12/02 10:33:47;;;;;;;4.00;0.60;;;4.40;99.90;;;;;;5095745;28;20408;-79
2021/12/02 10:36:39;;;;;;;4.73;1.00;;;5.60;99.90;;;;;;5095375;28;20822;-80
2021/12/02 10:39:21;;;;;;;3.20;0.37;;;6.20;99.90;;;;;;5095606;28;20867;-81
2021/12/02 10:42:08;;;;;;;4.20;0.50;;;6.40;99.90;;;;;;5095445;28;20447;-80
2021/12/02 10:44:36;;;;;;;2.87;0.60;;;6.80;99.00;;;;;;5095284;28;20411;-82
2021/12/02 10:47:08;;;;;;;4.33;1.13;;;7.50;97.40;;;;;;5095209;28;20412;-81
2021/12/02 10:49:42;;;;;;;3.23;0.70;;;8.80;93.60;;;;;;5095120;28;20425;-82
2021/12/02 10:52:10;;;;;;;6.37;0.80;;;8.40;93.10;;;;;;5095193;28;20408;-81
2021/12/02 10:54:39;;;;;;;1.73;0.77;;;8.30;94.50;;;;;;5093980;28;20479;-81
2021/12/02 10:57:14;;;;;;;4.20;0.50;;;9.10;91.20;;;;;;5095167;28;20414;-80
2021/12/02 10:59:46;;;;;;;3.50;0.60;;;8.70;90.30;;;;;;5094424;28;20467;-80
2021/12/02 11:02:21;;;;;;;2.90;0.40;;;9.30;90.60;;;;;;5094402;28;20480;-81
2021/12/02 11:04:54;;;;;;;2.07;0.73;;;9.90;87.30;;;;;;5093811;28;20423;-81
2021/12/02 11:07:24;;;;;;;5.60;1.30;;;9.80;86.00;;;;;;5095157;28;20429;-81
2021/12/02 11:09:52;;;;;;;2.73;1.63;;;10.40;82.00;;;;;;5094807;28;20554;-80
2021/12/02 11:12:21;;;;;;;2.60;0.70;;;10.60;81.60;;;;;;5094825;28;20787;-80
2021/12/02 11:15:04;;;;;;;3.43;1.07;;;10.40;79.00;;;;;;5093211;28;20920;-80
2021/12/02 11:17:33;;;;;;;3.23;0.60;;;9.80;81.70;;;;;;5094843;28;20560;-80
2021/12/02 11:20:04;;;;;;;5.00;0.87;;;8.40;90.30;;;;;;5094667;28;20422;-81
2021/12/02 11:22:30;;;;;;;1.57;0.70;;;7.60;90.80;;;;;;5094511;28;20475;-80
2021/12/02 11:24:58;;;;;;;2.67;0.97;;;8.00;93.00;;;;;;5094704;28;20801;-82
2021/12/02 11:27:30;;;;;;;4.23;1.00;;;7.90;90.00;;;;;;5094648;28;20424;-80
2021/12/02 11:29:58;;;;;;;4.50;0.97;;;7.90;91.30;;;;;;5094607;28;20756;-80
2021/12/02 11:32:36;;;;;;;5.70;0.73;;;6.70;93.90;;;;;;5094378;28;20407;-80
2021/12/02 11:35:17;;;;;;;7.20;0.97;;;5.90;96.60;;;;;;5094510;28;20477;-81
2021/12/02 11:37:47;;;;;;;3.23;0.77;;;5.10;99.90;;;;;;5094313;28;20445;-80
2021/12/02 11:40:57;;;;;;;1.27;0.50;;;4.90;99.90;;;;;;5094363;28;20407;-80
2021/12/02 11:43:27;;;;;;;1.00;0.60;;;5.00;99.90;;;;;;5091425;28;20486;-80
2021/12/02 11:45:54;;;;;;;3.47;1.00;;;4.90;99.90;;;;;;5094231;28;20422;-80
2021/12/02 11:48:26;;;;;;;2.30;0.73;;;4.90;99.90;;;;;;5092905;28;20828;-80
2021/12/02 11:50:55;;;;;;;1.33;0.30;;;4.90;99.90;;;;;;5094120;28;20445;-79
2021/12/02 11:53:22;;;;;;;2.70;0.40;;;4.80;99.90;;;;;;5094157;28;20408;-80
2021/12/02 11:55:50;;;;;;;4.93;1.33;;;4.80;99.90;;;;;;5093952;28;20802;-79
2021/12/02 11:58:16;;;;;;;3.10;0.77;;;4.70;99.90;;;;;;5093532;28;20420;-79
2021/12/02 12:00:44;;;;;;;7.77;1.10;;;4.60;99.90;;;;;;5093194;28;20415;-79
2021/12/02 12:03:20;;;;;;;2.00;0.37;;;4.60;99.90;;;;;;5093478;28;20491;-80
2021/12/02 12:05:59;;;;;;;1.47;0.53;;;4.60;99.90;;;;;;5092499;28;20958;-80
2021/12/02 12:08:33;;;;;;;2.10;0.50;;;4.40;99.90;;;;;;5093735;28;20426;-79
2021/12/02 12:11:23;;;;;;;2.77;0.40;;;4.30;99.90;;;;;;5093669;28;20756;-80
2021/12/02 12:13:58;;;;;;;2.40;0.47;;;4.70;99.90;;;;;;5093336;28;20903;-79
2021/12/02 12:16:45;;;;;;;4.13;0.40;;;4.70;99.90;;;;;;5093551;28;20906;-80
2021/12/02 12:19:20;;;;;;;4.20;0.93;;;4.40;99.90;;;;;;5093481;28;20410;-79
2021/12/02 12:22:02;;;;;;;1.57;0.70;;;4.20;99.90;;;;;;5093607;28;20450;-80
2021/12/02 12:24:41;;;;;;;0.67;0.53;;;4.10;99.90;;;;;;5092206;28;20473;-80
2021/12/02 12:27:17;;;;;;;2.10;0.20;;;4.20;99.90;;;;;;5093455;28;20471;-79
2021/12/02 12:29:44;;;;;;;1.60;0.53;;;3.90;99.90;;;;;;5093194;28;20453;-79
2021/12/02 12:32:30;;;;;;;2.67;0.77;;;3.80;99.90;;;;;;5092860;28;20847;-79
2021/12/02 12:35:06;;;;;;;2.10;0.67;;;3.70;99.90;;;;;;5093222;28;20402;-80
2021/12/02 12:40:17;;;;;;;0.87;0.20;;;3.50;99.90;;;;;;5093343;28;20924;-80
2021/12/02 12:42:45;;;;;;;1.90;0.40;;;3.50;99.90;;;;;;5092813;28;20462;-80
2021/12/02 12:45:21;;;;;;;3.33;0.60;;;3.50;99.90;;;;;;5093015;28;20607;-80
2021/12/02 12:47:49;;;;;;;1.27;0.40;;;3.40;99.90;;;;;;5091754;28;20414;-81
2021/12/02 12:50:38;;;;;;;3.03;0.43;;;3.30;99.90;;;;;;5093043;28;20436;-79
2021/12/02 12:53:03;;;;;;;3.53;0.77;;;3.20;99.90;;;;;;5092928;28;20423;-81
2021/12/02 12:55:34;;;;;;;4.30;1.00;;;3.20;99.90;;;;;;5092900;28;20774;-80
2021/12/02 12:58:15;;;;;;;1.77;0.53;;;3.10;99.90;;;;;;5092679;28;20624;-80
2021/12/02 13:00:45;;;;;;;1.77;0.40;;;3.10;99.90;;;;;;5091135;28;21255;-80
2021/12/02 13:03:16;;;;;;;4.90;0.40;;;3.10;99.90;;;;;;5092550;28;20570;-79
2021/12/02 13:05:50;;;;;;;2.93;0.50;;;3.10;99.90;;;;;;5092867;28;20489;-80
2021/12/02 13:08:17;;;;;;;1.37;0.40;;;3.10;99.90;;;;;;5092759;28;20764;-80
2021/12/02 13:10:59;;;;;;;2.57;0.60;;;3.20;99.90;;;;;;5092251;28;20406;-79
2021/12/02 13:13:31;;;;;;;2.53;0.50;;;3.20;99.90;;;;;;5091289;28;20890;-79
2021/12/02 13:16:17;;;;;;;3.80;1.20;;;3.30;99.90;;;;;;5092598;28;20415;-79
2021/12/02 13:18:57;;;;;;;3.50;0.63;;;3.30;99.90;;;;;;5091401;28;20417;-78
2021/12/02 13:21:29;;;;;;;2.87;0.90;;;3.30;99.90;;;;;;5092558;28;20422;-80
2021/12/02 13:24:10;;;;;;;1.80;0.77;;;3.30;99.90;;;;;;5092668;28;20414;-80
2021/12/02 13:26:54;;;;;;;3.73;0.70;;;3.30;99.90;;;;;;5092608;28;20478;-81